sensor_id;sensor_type;location;lat;lon;timestamp;P1;P2;P0
70249;PMS5003;57644;48.416;-123.374;2022-11-14T00:00:04;9;8;
70249;PMS5003;57644;48.416;-123.374;2022-11-14T00:02:34;8;8;
70249;PMS5003;57644;48.416;-123.374;2022-11-14T00:05:05;10;8;
70249;PMS5003;57644;48.416;-123.374;2022-11-14T00:07:35;9;9;
70249;PMS5003;57644;48.416;-123.374;2022-11-14T00:10:06;8;8;
70249;PMS5003;57644;48.416;-123.374;2022-11-14T00:12:36;10;10;
70249;PMS5003;57644;48.416;-123.374;2022-11-14T00:15:07;10;10;
70249;PMS5003;57644;48.416;-123.374;2022-11-14T00:17:37;11;9;
70249;PMS5003;57644;48.416;-123.374;2022-11-14T00:20:09;10;10;
70249;PMS5003;57644;48.416;-123.374;2022-11-14T00:22:38;10;10;
70249;PMS5003;57644;48.416;-123.374;2022-11-14T00:25:08;10;10;
70249;PMS5003;57644;48.416;-123.374;2022-11-14T00:27:39;10;10;
70249;PMS5003;57644;48.416;-123.374;2022-11-14T00:30:09;9;9;
70249;PMS5003;57644;48.416;-123.374;2022-11-14T00:32:40;13;12;
70249;PMS5003;57644;48.416;-123.374;2022-11-14T00:35:10;11;11;
70249;PMS5003;57644;48.416;-123.374;2022-11-14T00:37:41;12;12;
70249;PMS5003;57644;48.416;-123.374;2022-11-14T00:40:11;11;10;
70249;PMS5003;57644;48.416;-123.374;2022-11-14T00:42:42;10;10;
70249;PMS5003;57644;48.416;-123.374;2022-11-14T00:45:12;12;12;
70249;PMS5003;57644;48.416;-123.374;2022-11-14T00:47:42;13;13;
70249;PMS5003;57644;48.416;-123.374;2022-11-14T00:50:13;10;10;
70249;PMS5003;57644;48.416;-123.374;2022-11-14T00:52:44;12;11;
70249;PMS5003;57644;48.416;-123.374;2022-11-14T00:55:14;13;13;
70249;PMS5003;57644;48.416;-123.374;2022-11-14T00:57:45;13;13;
70249;PMS5003;57644;48.416;-123.374;2022-11-14T01:00:15;11;10;
70249;PMS5003;57644;48.416;-123.374;2022-11-14T01:02:46;12;12;
70249;PMS5003;57644;48.416;-123.374;2022-11-14T01:05:16;11;11;
70249;PMS5003;57644;48.416;-123.374;2022-11-14T01:07:47;13;13;
70249;PMS5003;57644;48.416;-123.374;2022-11-14T01:10:17;12;12;
70249;PMS5003;57644;48.416;-123.374;2022-11-14T01:12:47;11;11;
70249;PMS5003;57644;48.416;-123.374;2022-11-14T01:15:18;13;13;
70249;PMS5003;57644;48.416;-123.374;2022-11-14T01:17:48;14;14;
70249;PMS5003;57644;48.416;-123.374;2022-11-14T01:20:18;17;17;
70249;PMS5003;57644;48.416;-123.374;2022-11-14T01:22:49;13;13;
70249;PMS5003;57644;48.416;-123.374;2022-11-14T01:25:19;14;14;
70249;PMS5003;57644;48.416;-123.374;2022-11-14T01:27:50;16;14;
70249;PMS5003;57644;48.416;-123.374;2022-11-14T01:30:20;16;16;
70249;PMS5003;57644;48.416;-123.374;2022-11-14T01:32:51;16;14;
70249;PMS5003;57644;48.416;-123.374;2022-11-14T01:35:22;14;14;
70249;PMS5003;57644;48.416;-123.374;2022-11-14T01:37:52;15;15;
70249;PMS5003;57644;48.416;-123.374;2022-11-14T01:40:22;15;14;
70249;PMS5003;57644;48.416;-123.374;2022-11-14T01:47:54;16;16;
70249;PMS5003;57644;48.416;-123.374;2022-11-14T01:50:24;17;16;
70249;PMS5003;57644;48.416;-123.374;2022-11-14T01:52:56;17;16;
70249;PMS5003;57644;48.416;-123.374;2022-11-14T01:55:25;17;17;
70249;PMS5003;57644;48.416;-123.374;2022-11-14T01:57:55;13;13;
70249;PMS5003;57644;48.416;-123.374;2022-11-14T02:00:25;12;11;
70249;PMS5003;57644;48.416;-123.374;2022-11-14T02:02:56;12;12;
70249;PMS5003;57644;48.416;-123.374;2022-11-14T02:05:26;15;14;
70249;PMS5003;57644;48.416;-123.374;2022-11-14T02:07:57;15;15;
70249;PMS5003;57644;48.416;-123.374;2022-11-14T02:10:28;20;17;
70249;PMS5003;57644;48.416;-123.374;2022-11-14T02:12:58;17;16;
70249;PMS5003;57644;48.416;-123.374;2022-11-14T02:15:28;18;17;
70249;PMS5003;57644;48.416;-123.374;2022-11-14T02:17:59;16;16;
70249;PMS5003;57644;48.416;-123.374;2022-11-14T02:20:32;16;16;
70249;PMS5003;57644;48.416;-123.374;2022-11-14T02:23:00;14;14;
70249;PMS5003;57644;48.416;-123.374;2022-11-14T02:25:30;13;13;
70249;PMS5003;57644;48.416;-123.374;2022-11-14T02:28:01;14;13;
70249;PMS5003;57644;48.416;-123.374;2022-11-14T02:30:31;13;13;
70249;PMS5003;57644;48.416;-123.374;2022-11-14T02:33:02;15;14;
70249;PMS5003;57644;48.416;-123.374;2022-11-14T02:35:32;13;13;
70249;PMS5003;57644;48.416;-123.374;2022-11-14T02:38:03;11;11;
70249;PMS5003;57644;48.416;-123.374;2022-11-14T02:40:34;12;12;
70249;PMS5003;57644;48.416;-123.374;2022-11-14T02:43:04;16;15;
70249;PMS5003;57644;48.416;-123.374;2022-11-14T02:45:35;17;15;
70249;PMS5003;57644;48.416;-123.374;2022-11-14T02:48:05;13;13;
70249;PMS5003;57644;48.416;-123.374;2022-11-14T02:50:36;13;13;
70249;PMS5003;57644;48.416;-123.374;2022-11-14T02:53:07;15;15;
70249;PMS5003;57644;48.416;-123.374;2022-11-14T02:55:37;14;14;
70249;PMS5003;57644;48.416;-123.374;2022-11-14T02:58:07;18;18;
70249;PMS5003;57644;48.416;-123.374;2022-11-14T03:00:37;17;16;
70249;PMS5003;57644;48.416;-123.374;2022-11-14T03:03:08;19;19;
70249;PMS5003;57644;48.416;-123.374;2022-11-14T03:05:38;17;17;
70249;PMS5003;57644;48.416;-123.374;2022-11-14T03:08:09;16;15;
70249;PMS5003;57644;48.416;-123.374;2022-11-14T03:10:39;15;15;
70249;PMS5003;57644;48.416;-123.374;2022-11-14T03:13:10;14;13;
70249;PMS5003;57644;48.416;-123.374;2022-11-14T03:15:40;17;16;
70249;PMS5003;57644;48.416;-123.374;2022-11-14T03:18:11;17;15;
70249;PMS5003;57644;48.416;-123.374;2022-11-14T03:20:41;16;15;
70249;PMS5003;57644;48.416;-123.374;2022-11-14T03:23:12;17;17;
70249;PMS5003;57644;48.416;-123.374;2022-11-14T03:25:42;16;15;
70249;PMS5003;57644;48.416;-123.374;2022-11-14T03:28:13;21;19;
70249;PMS5003;57644;48.416;-123.374;2022-11-14T03:30:43;18;18;
70249;PMS5003;57644;48.416;-123.374;2022-11-14T03:33:13;20;19;
70249;PMS5003;57644;48.416;-123.374;2022-11-14T03:35:44;19;18;
70249;PMS5003;57644;48.416;-123.374;2022-11-14T03:38:14;15;15;
70249;PMS5003;57644;48.416;-123.374;2022-11-14T03:40:45;16;16;
70249;PMS5003;57644;48.416;-123.374;2022-11-14T03:43:16;18;18;
70249;PMS5003;57644;48.416;-123.374;2022-11-14T03:45:46;23;23;
70249;PMS5003;57644;48.416;-123.374;2022-11-14T03:48:16;21;20;
70249;PMS5003;57644;48.416;-123.374;2022-11-14T03:50:46;19;19;
70249;PMS5003;57644;48.416;-123.374;2022-11-14T03:53:17;21;18;
70249;PMS5003;57644;48.416;-123.374;2022-11-14T03:55:48;19;19;
70249;PMS5003;57644;48.416;-123.374;2022-11-14T03:58:18;19;19;
70249;PMS5003;57644;48.416;-123.374;2022-11-14T04:00:49;24;23;
70249;PMS5003;57644;48.416;-123.374;2022-11-14T04:03:20;24;24;
70249;PMS5003;57644;48.416;-123.374;2022-11-14T04:05:50;21;21;
70249;PMS5003;57644;48.416;-123.374;2022-11-14T04:08:21;25;24;
70249;PMS5003;57644;48.416;-123.374;2022-11-14T04:10:52;22;21;
70249;PMS5003;57644;48.416;-123.374;2022-11-14T04:13:22;23;22;
70249;PMS5003;57644;48.416;-123.374;2022-11-14T04:15:54;24;23;
70249;PMS5003;57644;48.416;-123.374;2022-11-14T04:18:23;28;25;
70249;PMS5003;57644;48.416;-123.374;2022-11-14T04:20:53;27;25;
70249;PMS5003;57644;48.416;-123.374;2022-11-14T04:23:23;27;27;
70249;PMS5003;57644;48.416;-123.374;2022-11-14T04:25:53;23;21;
70249;PMS5003;57644;48.416;-123.374;2022-11-14T04:28:24;28;27;
70249;PMS5003;57644;48.416;-123.374;2022-11-14T04:30:54;25;24;
70249;PMS5003;57644;48.416;-123.374;2022-11-14T04:33:25;26;25;
70249;PMS5003;57644;48.416;-123.374;2022-11-14T04:35:55;28;28;
70249;PMS5003;57644;48.416;-123.374;2022-11-14T04:38:26;34;31;
70249;PMS5003;57644;48.416;-123.374;2022-11-14T04:40:56;30;29;
70249;PMS5003;57644;48.416;-123.374;2022-11-14T04:43:27;32;31;
70249;PMS5003;57644;48.416;-123.374;2022-11-14T04:45:57;29;27;
70249;PMS5003;57644;48.416;-123.374;2022-11-14T04:48:28;36;33;
70249;PMS5003;57644;48.416;-123.374;2022-11-14T04:50:58;29;29;
70249;PMS5003;57644;48.416;-123.374;2022-11-14T04:53:30;27;26;
70249;PMS5003;57644;48.416;-123.374;2022-11-14T04:55:59;27;27;
70249;PMS5003;57644;48.416;-123.374;2022-11-14T04:58:30;26;26;
70249;PMS5003;57644;48.416;-123.374;2022-11-14T05:03:31;26;25;
70249;PMS5003;57644;48.416;-123.374;2022-11-14T05:06:01;28;26;
70249;PMS5003;57644;48.416;-123.374;2022-11-14T05:08:31;30;29;
70249;PMS5003;57644;48.416;-123.374;2022-11-14T05:11:01;31;30;
70249;PMS5003;57644;48.416;-123.374;2022-11-14T05:13:32;31;31;
70249;PMS5003;57644;48.416;-123.374;2022-11-14T05:16:02;30;29;
70249;PMS5003;57644;48.416;-123.374;2022-11-14T05:18:33;29;27;
70249;PMS5003;57644;48.416;-123.374;2022-11-14T05:21:03;25;25;
70249;PMS5003;57644;48.416;-123.374;2022-11-14T05:23:34;28;27;
70249;PMS5003;57644;48.416;-123.374;2022-11-14T05:26:05;32;30;
70249;PMS5003;57644;48.416;-123.374;2022-11-14T05:28:34;25;23;
70249;PMS5003;57644;48.416;-123.374;2022-11-14T05:31:05;26;26;
70249;PMS5003;57644;48.416;-123.374;2022-11-14T05:33:35;21;20;
70249;PMS5003;57644;48.416;-123.374;2022-11-14T05:36:06;26;23;
70249;PMS5003;57644;48.416;-123.374;2022-11-14T05:38:35;26;25;
70249;PMS5003;57644;48.416;-123.374;2022-11-14T05:41:06;26;24;
70249;PMS5003;57644;48.416;-123.374;2022-11-14T05:43:36;30;29;
70249;PMS5003;57644;48.416;-123.374;2022-11-14T05:46:08;26;24;
70249;PMS5003;57644;48.416;-123.374;2022-11-14T05:48:37;26;25;
70249;PMS5003;57644;48.416;-123.374;2022-11-14T05:51:09;26;25;
70249;PMS5003;57644;48.416;-123.374;2022-11-14T05:53:38;19;18;
70249;PMS5003;57644;48.416;-123.374;2022-11-14T05:56:09;19;18;
70249;PMS5003;57644;48.416;-123.374;2022-11-14T05:58:38;23;21;
70249;PMS5003;57644;48.416;-123.374;2022-11-14T06:01:09;23;20;
70249;PMS5003;57644;48.416;-123.374;2022-11-14T06:03:39;22;21;
70249;PMS5003;57644;48.416;-123.374;2022-11-14T06:06:10;20;20;
70249;PMS5003;57644;48.416;-123.374;2022-11-14T06:08:39;19;19;
70249;PMS5003;57644;48.416;-123.374;2022-11-14T06:11:10;20;19;
70249;PMS5003;57644;48.416;-123.374;2022-11-14T06:13:41;20;19;
70249;PMS5003;57644;48.416;-123.374;2022-11-14T06:16:11;20;19;
70249;PMS5003;57644;48.416;-123.374;2022-11-14T06:18:41;19;19;
70249;PMS5003;57644;48.416;-123.374;2022-11-14T06:21:13;26;23;
70249;PMS5003;57644;48.416;-123.374;2022-11-14T06:28:51;25;23;
70249;PMS5003;57644;48.416;-123.374;2022-11-14T06:31:15;21;21;
70249;PMS5003;57644;48.416;-123.374;2022-11-14T06:33:44;23;23;
70249;PMS5003;57644;48.416;-123.374;2022-11-14T06:36:20;22;22;
70249;PMS5003;57644;48.416;-123.374;2022-11-14T06:38:52;24;23;
70249;PMS5003;57644;48.416;-123.374;2022-11-14T06:41:16;25;24;
70249;PMS5003;57644;48.416;-123.374;2022-11-14T06:43:47;23;22;
70249;PMS5003;57644;48.416;-123.374;2022-11-14T06:46:18;22;22;
70249;PMS5003;57644;48.416;-123.374;2022-11-14T06:48:53;26;24;
70249;PMS5003;57644;48.416;-123.374;2022-11-14T06:51:23;21;20;
70249;PMS5003;57644;48.416;-123.374;2022-11-14T06:53:49;22;22;
70249;PMS5003;57644;48.416;-123.374;2022-11-14T06:56:19;21;20;
70249;PMS5003;57644;48.416;-123.374;2022-11-14T06:58:49;20;18;
70249;PMS5003;57644;48.416;-123.374;2022-11-14T07:01:20;16;16;
70249;PMS5003;57644;48.416;-123.374;2022-11-14T07:03:50;22;22;
70249;PMS5003;57644;48.416;-123.374;2022-11-14T07:06:21;22;21;
70249;PMS5003;57644;48.416;-123.374;2022-11-14T07:08:52;22;20;
70249;PMS5003;57644;48.416;-123.374;2022-11-14T07:11:22;22;21;
70249;PMS5003;57644;48.416;-123.374;2022-11-14T07:13:54;20;19;
70249;PMS5003;57644;48.416;-123.374;2022-11-14T07:16:23;20;18;
70249;PMS5003;57644;48.416;-123.374;2022-11-14T07:18:54;22;21;
70249;PMS5003;57644;48.416;-123.374;2022-11-14T07:21:24;20;20;
70249;PMS5003;57644;48.416;-123.374;2022-11-14T07:23:54;17;17;
70249;PMS5003;57644;48.416;-123.374;2022-11-14T07:26:25;20;20;
70249;PMS5003;57644;48.416;-123.374;2022-11-14T07:28:55;28;27;
70249;PMS5003;57644;48.416;-123.374;2022-11-14T07:31:26;22;22;
70249;PMS5003;57644;48.416;-123.374;2022-11-14T07:33:56;17;17;
70249;PMS5003;57644;48.416;-123.374;2022-11-14T07:36:27;22;21;
70249;PMS5003;57644;48.416;-123.374;2022-11-14T07:38:57;21;20;
70249;PMS5003;57644;48.416;-123.374;2022-11-14T07:41:27;22;21;
70249;PMS5003;57644;48.416;-123.374;2022-11-14T07:43:57;15;15;
70249;PMS5003;57644;48.416;-123.374;2022-11-14T07:46:27;20;18;
70249;PMS5003;57644;48.416;-123.374;2022-11-14T07:48:58;17;17;
70249;PMS5003;57644;48.416;-123.374;2022-11-14T07:51:34;21;20;
70249;PMS5003;57644;48.416;-123.374;2022-11-14T07:54:00;17;16;
70249;PMS5003;57644;48.416;-123.374;2022-11-14T07:56:34;18;17;
70249;PMS5003;57644;48.416;-123.374;2022-11-14T07:59:01;16;14;
70249;PMS5003;57644;48.416;-123.374;2022-11-14T08:04:08;20;20;
70249;PMS5003;57644;48.416;-123.374;2022-11-14T08:06:34;19;19;
70249;PMS5003;57644;48.416;-123.374;2022-11-14T08:11:32;18;17;
70249;PMS5003;57644;48.416;-123.374;2022-11-14T08:14:06;19;18;
70249;PMS5003;57644;48.416;-123.374;2022-11-14T08:16:33;23;22;
70249;PMS5003;57644;48.416;-123.374;2022-11-14T08:19:08;15;15;
70249;PMS5003;57644;48.416;-123.374;2022-11-14T08:21:41;17;17;
70249;PMS5003;57644;48.416;-123.374;2022-11-14T08:24:05;19;18;
70249;PMS5003;57644;48.416;-123.374;2022-11-14T08:26:35;14;14;
70249;PMS5003;57644;48.416;-123.374;2022-11-14T08:29:06;16;16;
70249;PMS5003;57644;48.416;-123.374;2022-11-14T08:31:36;17;16;
70249;PMS5003;57644;48.416;-123.374;2022-11-14T08:34:06;14;13;
70249;PMS5003;57644;48.416;-123.374;2022-11-14T08:36:37;15;14;
70249;PMS5003;57644;48.416;-123.374;2022-11-14T08:39:07;13;13;
70249;PMS5003;57644;48.416;-123.374;2022-11-14T08:41:40;17;17;
70249;PMS5003;57644;48.416;-123.374;2022-11-14T08:44:15;14;13;
70249;PMS5003;57644;48.416;-123.374;2022-11-14T08:46:48;14;14;
70249;PMS5003;57644;48.416;-123.374;2022-11-14T08:49:15;14;14;
70249;PMS5003;57644;48.416;-123.374;2022-11-14T08:51:40;15;14;
70249;PMS5003;57644;48.416;-123.374;2022-11-14T08:54:17;14;14;
70249;PMS5003;57644;48.416;-123.374;2022-11-14T08:59:13;18;18;
70249;PMS5003;57644;48.416;-123.374;2022-11-14T09:01:44;15;14;
70249;PMS5003;57644;48.416;-123.374;2022-11-14T09:04:14;12;12;
70249;PMS5003;57644;48.416;-123.374;2022-11-14T09:06:46;12;12;
70249;PMS5003;57644;48.416;-123.374;2022-11-14T09:09:20;13;13;
70249;PMS5003;57644;48.416;-123.374;2022-11-14T09:11:47;13;13;
70249;PMS5003;57644;48.416;-123.374;2022-11-14T09:14:15;13;13;
70249;PMS5003;57644;48.416;-123.374;2022-11-14T09:16:46;14;14;
70249;PMS5003;57644;48.416;-123.374;2022-11-14T09:21:46;13;13;
70249;PMS5003;57644;48.416;-123.374;2022-11-14T09:24:20;13;12;
70249;PMS5003;57644;48.416;-123.374;2022-11-14T09:26:48;11;10;
70249;PMS5003;57644;48.416;-123.374;2022-11-14T09:29:18;10;10;
70249;PMS5003;57644;48.416;-123.374;2022-11-14T09:34:24;12;11;
70249;PMS5003;57644;48.416;-123.374;2022-11-14T09:36:50;12;12;
70249;PMS5003;57644;48.416;-123.374;2022-11-14T09:39:20;11;11;
70249;PMS5003;57644;48.416;-123.374;2022-11-14T09:41:54;11;10;
70249;PMS5003;57644;48.416;-123.374;2022-11-14T09:44:30;12;12;
70249;PMS5003;57644;48.416;-123.374;2022-11-14T09:46:55;10;10;
70249;PMS5003;57644;48.416;-123.374;2022-11-14T09:49:25;12;11;
70249;PMS5003;57644;48.416;-123.374;2022-11-14T09:51:55;12;11;
70249;PMS5003;57644;48.416;-123.374;2022-11-14T09:54:25;12;12;
70249;PMS5003;57644;48.416;-123.374;2022-11-14T09:56:54;12;12;
70249;PMS5003;57644;48.416;-123.374;2022-11-14T09:59:24;15;15;
70249;PMS5003;57644;48.416;-123.374;2022-11-14T10:01:56;13;12;
70249;PMS5003;57644;48.416;-123.374;2022-11-14T10:04:35;11;11;
70249;PMS5003;57644;48.416;-123.374;2022-11-14T10:06:57;12;12;
70249;PMS5003;57644;48.416;-123.374;2022-11-14T10:09:31;10;10;
70249;PMS5003;57644;48.416;-123.374;2022-11-14T10:11:58;15;13;
70249;PMS5003;57644;48.416;-123.374;2022-11-14T10:14:34;13;13;
70249;PMS5003;57644;48.416;-123.374;2022-11-14T10:17:02;13;12;
70249;PMS5003;57644;48.416;-123.374;2022-11-14T10:19:30;14;13;
70249;PMS5003;57644;48.416;-123.374;2022-11-14T10:22:04;12;12;
70249;PMS5003;57644;48.416;-123.374;2022-11-14T10:24:34;13;12;
70249;PMS5003;57644;48.416;-123.374;2022-11-14T10:27:01;13;11;
70249;PMS5003;57644;48.416;-123.374;2022-11-14T10:32:03;12;10;
70249;PMS5003;57644;48.416;-123.374;2022-11-14T10:34:33;12;12;
70249;PMS5003;57644;48.416;-123.374;2022-11-14T10:37:04;9;9;
70249;PMS5003;57644;48.416;-123.374;2022-11-14T10:39:36;9;9;
70249;PMS5003;57644;48.416;-123.374;2022-11-14T10:42:08;13;13;
70249;PMS5003;57644;48.416;-123.374;2022-11-14T10:44:35;13;11;
70249;PMS5003;57644;48.416;-123.374;2022-11-14T10:47:07;11;11;
70249;PMS5003;57644;48.416;-123.374;2022-11-14T10:49:36;14;12;
70249;PMS5003;57644;48.416;-123.374;2022-11-14T10:52:08;11;11;
70249;PMS5003;57644;48.416;-123.374;2022-11-14T10:54:40;12;12;
70249;PMS5003;57644;48.416;-123.374;2022-11-14T10:57:12;14;13;
70249;PMS5003;57644;48.416;-123.374;2022-11-14T10:59:38;14;12;
70249;PMS5003;57644;48.416;-123.374;2022-11-14T11:02:09;16;14;
70249;PMS5003;57644;48.416;-123.374;2022-11-14T11:04:40;12;12;
70249;PMS5003;57644;48.416;-123.374;2022-11-14T11:09:40;12;11;
70249;PMS5003;57644;48.416;-123.374;2022-11-14T11:12:16;14;13;
70249;PMS5003;57644;48.416;-123.374;2022-11-14T11:14:42;13;13;
70249;PMS5003;57644;48.416;-123.374;2022-11-14T11:17:16;14;14;
70249;PMS5003;57644;48.416;-123.374;2022-11-14T11:19:43;11;10;
70249;PMS5003;57644;48.416;-123.374;2022-11-14T11:24:43;12;11;
70249;PMS5003;57644;48.416;-123.374;2022-11-14T11:27:19;12;11;
70249;PMS5003;57644;48.416;-123.374;2022-11-14T11:29:45;16;14;
70249;PMS5003;57644;48.416;-123.374;2022-11-14T11:34:46;16;15;
70249;PMS5003;57644;48.416;-123.374;2022-11-14T11:37:17;11;10;
70249;PMS5003;57644;48.416;-123.374;2022-11-14T11:39:48;9;9;
70249;PMS5003;57644;48.416;-123.374;2022-11-14T11:42:18;13;13;
70249;PMS5003;57644;48.416;-123.374;2022-11-14T11:44:49;11;11;
70249;PMS5003;57644;48.416;-123.374;2022-11-14T11:47:19;10;10;
70249;PMS5003;57644;48.416;-123.374;2022-11-14T11:49:50;11;11;
70249;PMS5003;57644;48.416;-123.374;2022-11-14T11:52:29;10;10;
70249;PMS5003;57644;48.416;-123.374;2022-11-14T11:54:54;10;10;
70249;PMS5003;57644;48.416;-123.374;2022-11-14T11:57:22;10;9;
70249;PMS5003;57644;48.416;-123.374;2022-11-14T11:59:53;12;12;
70249;PMS5003;57644;48.416;-123.374;2022-11-14T12:02:22;12;11;
70249;PMS5003;57644;48.416;-123.374;2022-11-14T12:04:53;9;9;
70249;PMS5003;57644;48.416;-123.374;2022-11-14T12:07:24;10;10;
70249;PMS5003;57644;48.416;-123.374;2022-11-14T12:09:54;10;9;
70249;PMS5003;57644;48.416;-123.374;2022-11-14T12:12:27;12;11;
70249;PMS5003;57644;48.416;-123.374;2022-11-14T12:14:58;12;12;
70249;PMS5003;57644;48.416;-123.374;2022-11-14T12:17:29;14;13;
70249;PMS5003;57644;48.416;-123.374;2022-11-14T12:19:58;13;12;
70249;PMS5003;57644;48.416;-123.374;2022-11-14T12:22:30;12;12;
70249;PMS5003;57644;48.416;-123.374;2022-11-14T12:25:05;11;11;
70249;PMS5003;57644;48.416;-123.374;2022-11-14T12:27:33;13;12;
70249;PMS5003;57644;48.416;-123.374;2022-11-14T12:32:30;12;11;
70249;PMS5003;57644;48.416;-123.374;2022-11-14T12:34:59;11;11;
70249;PMS5003;57644;48.416;-123.374;2022-11-14T12:37:31;13;12;
70249;PMS5003;57644;48.416;-123.374;2022-11-14T12:40:00;8;7;
70249;PMS5003;57644;48.416;-123.374;2022-11-14T12:42:31;12;11;
70249;PMS5003;57644;48.416;-123.374;2022-11-14T12:45:01;11;10;
70249;PMS5003;57644;48.416;-123.374;2022-11-14T12:47:32;8;8;
70249;PMS5003;57644;48.416;-123.374;2022-11-14T12:55:16;11;11;
70249;PMS5003;57644;48.416;-123.374;2022-11-14T12:57:35;12;12;
70249;PMS5003;57644;48.416;-123.374;2022-11-14T13:00:06;8;8;
70249;PMS5003;57644;48.416;-123.374;2022-11-14T13:07:38;12;11;
70249;PMS5003;57644;48.416;-123.374;2022-11-14T13:10:11;9;9;
70249;PMS5003;57644;48.416;-123.374;2022-11-14T13:12:37;9;9;
70249;PMS5003;57644;48.416;-123.374;2022-11-14T13:17:38;10;10;
70249;PMS5003;57644;48.416;-123.374;2022-11-14T13:22:40;8;8;
70249;PMS5003;57644;48.416;-123.374;2022-11-14T13:27:40;11;11;
70249;PMS5003;57644;48.416;-123.374;2022-11-14T13:30:11;10;9;
70249;PMS5003;57644;48.416;-123.374;2022-11-14T13:35:13;11;11;
70249;PMS5003;57644;48.416;-123.374;2022-11-14T13:37:47;12;12;
70249;PMS5003;57644;48.416;-123.374;2022-11-14T13:40:15;11;11;
70249;PMS5003;57644;48.416;-123.374;2022-11-14T13:42:47;10;10;
70249;PMS5003;57644;48.416;-123.374;2022-11-14T13:45:19;10;10;
70249;PMS5003;57644;48.416;-123.374;2022-11-14T13:50:16;11;11;
70249;PMS5003;57644;48.416;-123.374;2022-11-14T13:52:47;11;10;
70249;PMS5003;57644;48.416;-123.374;2022-11-14T13:55:20;10;10;
70249;PMS5003;57644;48.416;-123.374;2022-11-14T13:57:51;8;8;
70249;PMS5003;57644;48.416;-123.374;2022-11-14T14:00:18;10;9;
70249;PMS5003;57644;48.416;-123.374;2022-11-14T14:05:24;10;10;
70249;PMS5003;57644;48.416;-123.374;2022-11-14T14:07:54;10;9;
70249;PMS5003;57644;48.416;-123.374;2022-11-14T14:10:23;12;12;
70249;PMS5003;57644;48.416;-123.374;2022-11-14T14:12:56;10;9;
70249;PMS5003;57644;48.416;-123.374;2022-11-14T14:15:24;12;11;
70249;PMS5003;57644;48.416;-123.374;2022-11-14T14:17:55;10;10;
70249;PMS5003;57644;48.416;-123.374;2022-11-14T14:20:28;10;10;
70249;PMS5003;57644;48.416;-123.374;2022-11-14T14:22:56;10;10;
70249;PMS5003;57644;48.416;-123.374;2022-11-14T14:25:25;11;11;
70249;PMS5003;57644;48.416;-123.374;2022-11-14T14:27:56;10;9;
70249;PMS5003;57644;48.416;-123.374;2022-11-14T14:30:25;10;10;
70249;PMS5003;57644;48.416;-123.374;2022-11-14T14:35:27;10;10;
70249;PMS5003;57644;48.416;-123.374;2022-11-14T14:37:56;13;13;
70249;PMS5003;57644;48.416;-123.374;2022-11-14T14:40:28;10;10;
70249;PMS5003;57644;48.416;-123.374;2022-11-14T14:42:57;12;11;
70249;PMS5003;57644;48.416;-123.374;2022-11-14T14:45:28;13;11;
70249;PMS5003;57644;48.416;-123.374;2022-11-14T14:47:59;12;12;
70249;PMS5003;57644;48.416;-123.374;2022-11-14T14:50:30;10;10;
70249;PMS5003;57644;48.416;-123.374;2022-11-14T14:53:00;11;10;
70249;PMS5003;57644;48.416;-123.374;2022-11-14T14:55:32;10;10;
70249;PMS5003;57644;48.416;-123.374;2022-11-14T15:00:31;16;16;
70249;PMS5003;57644;48.416;-123.374;2022-11-14T15:03:02;12;12;
70249;PMS5003;57644;48.416;-123.374;2022-11-14T15:05:32;15;14;
70249;PMS5003;57644;48.416;-123.374;2022-11-14T15:08:02;12;12;
70249;PMS5003;57644;48.416;-123.374;2022-11-14T15:10:33;15;13;
70249;PMS5003;57644;48.416;-123.374;2022-11-14T15:13:03;13;12;
70249;PMS5003;57644;48.416;-123.374;2022-11-14T15:15:34;14;13;
70249;PMS5003;57644;48.416;-123.374;2022-11-14T15:18:06;13;11;
70249;PMS5003;57644;48.416;-123.374;2022-11-14T15:20:36;16;15;
70249;PMS5003;57644;48.416;-123.374;2022-11-14T15:23:17;13;12;
70249;PMS5003;57644;48.416;-123.374;2022-11-14T15:25:36;15;15;
70249;PMS5003;57644;48.416;-123.374;2022-11-14T15:30:37;14;13;
70249;PMS5003;57644;48.416;-123.374;2022-11-14T15:35:38;14;13;
70249;PMS5003;57644;48.416;-123.374;2022-11-14T15:40:39;15;14;
70249;PMS5003;57644;48.416;-123.374;2022-11-14T15:45:40;14;13;
70249;PMS5003;57644;48.416;-123.374;2022-11-14T15:48:11;15;13;
70249;PMS5003;57644;48.416;-123.374;2022-11-14T15:50:41;15;14;
70249;PMS5003;57644;48.416;-123.374;2022-11-14T15:53:16;14;13;
70249;PMS5003;57644;48.416;-123.374;2022-11-14T15:55:42;14;14;
70249;PMS5003;57644;48.416;-123.374;2022-11-14T15:58:12;15;15;
70249;PMS5003;57644;48.416;-123.374;2022-11-14T16:00:46;15;14;
70249;PMS5003;57644;48.416;-123.374;2022-11-14T16:03:14;14;14;
70249;PMS5003;57644;48.416;-123.374;2022-11-14T16:05:43;12;11;
70249;PMS5003;57644;48.416;-123.374;2022-11-14T16:08:14;11;11;
70249;PMS5003;57644;48.416;-123.374;2022-11-14T16:10:44;10;10;
70249;PMS5003;57644;48.416;-123.374;2022-11-14T16:13:15;16;16;
70249;PMS5003;57644;48.416;-123.374;2022-11-14T16:15:46;12;11;
70249;PMS5003;57644;48.416;-123.374;2022-11-14T16:18:16;11;11;
70249;PMS5003;57644;48.416;-123.374;2022-11-14T16:20:47;15;15;
70249;PMS5003;57644;48.416;-123.374;2022-11-14T16:23:17;13;13;
70249;PMS5003;57644;48.416;-123.374;2022-11-14T16:25:48;13;12;
70249;PMS5003;57644;48.416;-123.374;2022-11-14T16:28:19;13;13;
70249;PMS5003;57644;48.416;-123.374;2022-11-14T16:30:49;15;15;
70249;PMS5003;57644;48.416;-123.374;2022-11-14T16:33:19;14;13;
70249;PMS5003;57644;48.416;-123.374;2022-11-14T16:35:50;11;11;
70249;PMS5003;57644;48.416;-123.374;2022-11-14T16:38:20;13;11;
70249;PMS5003;57644;48.416;-123.374;2022-11-14T16:40:51;12;12;
70249;PMS5003;57644;48.416;-123.374;2022-11-14T16:43:21;13;12;
70249;PMS5003;57644;48.416;-123.374;2022-11-14T16:45:52;12;12;
70249;PMS5003;57644;48.416;-123.374;2022-11-14T16:48:22;13;13;
70249;PMS5003;57644;48.416;-123.374;2022-11-14T16:50:53;14;14;
70249;PMS5003;57644;48.416;-123.374;2022-11-14T16:53:23;12;11;
70249;PMS5003;57644;48.416;-123.374;2022-11-14T16:55:55;14;14;
70249;PMS5003;57644;48.416;-123.374;2022-11-14T16:58:24;12;12;
70249;PMS5003;57644;48.416;-123.374;2022-11-14T17:00:55;15;15;
70249;PMS5003;57644;48.416;-123.374;2022-11-14T17:03:25;15;15;
70249;PMS5003;57644;48.416;-123.374;2022-11-14T17:05:55;9;9;
70249;PMS5003;57644;48.416;-123.374;2022-11-14T17:08:25;10;10;